Dai2kousei — JD2542 — position and weather

sailwx.info

Track history (hours):
 
Tides and Currents Weather Stations Pressure Air Temp Water Temp Dewpoint Dewpoint Depression Visibility Wind Speed Wind Dir Waves Ship Positions

Dai2kousei

Last reported at 2015-Jan-16 00:27 UTC. Time now 2015-Jan-31 07:12 UTC.
Position N 34°45' E 139°09'.
Warning: this ship's position is 15 days out of date.

Length 77 m; draft 3.8 m.

MMSI: 431000467.

Date/timePositionNaut miles runAvg speedWind from/ knotsBaromVisibWave heightAir tempDewpointWater temp
2015-Jan-16 00:27N 34°45' E 139°09'2211.6
2015-Jan-15 22:30N 34°58' E 139°31'1111.0
2015-Jan-15 21:33N 35°05' E 139°41'1211.6
2015-Jan-15 20:33N 35°15' E 139°46'10 8.7
2015-Jan-15 19:24N 35°26' E 139°47'6 2.0
2015-Jan-15 16:32N 35°22' E 139°53'0 0.0
2015-Jan-15 14:10N 35°22' E 139°53'0 0.0
2015-Jan-15 13:28N 35°22' E 139°53'0 0.0
2015-Jan-15 12:12N 35°22' E 139°53'0 0.0
2015-Jan-15 11:26N 35°22' E 139°53'0 0.0
2015-Jan-15 10:30N 35°22' E 139°53'0 0.0
2015-Jan-15 09:31N 35°22' E 139°53'0 0.0
2015-Jan-15 08:31N 35°22' E 139°53'0 0.0
2015-Jan-15 01:30N 35°22' E 139°53'0 0.0
2015-Jan-15 00:33N 35°22' E 139°53'2 0.4
2015-Jan-14 18:17N 35°23' E 139°50'0 0.0
2015-Jan-14 17:33N 35°23' E 139°50'4 3.9
2015-Jan-14 16:33N 35°22' E 139°46'10 9.6
2015-Jan-14 15:33N 35°13' E 139°47'1010.5
2015-Jan-14 14:33N 35°04' E 139°39'  
2015-Jan-11 12:27N 34°45' E 139°09'25 8.7
2015-Jan-11 09:32N 34°52' E 139°39'6 5.5
2015-Jan-11 08:30N 34°52' E 139°46'11 5.0
2015-Jan-11 06:22N 34°54' E 139°59'  
Track history (hours):
 
Tides and Currents Weather Stations Pressure Air Temp Water Temp Dewpoint Dewpoint Depression Visibility Wind Speed Wind Dir Waves Ship Positions

Dai2kousei

Last reported at 2015-Jan-16 00:27 UTC. Time now 2015-Jan-31 07:12 UTC.
Position N 34°45' E 139°09'.
Warning: this ship's position is 15 days out of date.

Length 77 m; draft 3.8 m.

MMSI: 431000467.

Date/timePositionNaut miles runAvg speedWind from/ knotsBaromVisibWave heightAir tempDewpointWater temp
2015-Jan-16 00:27N 34°45' E 139°09'2211.6
2015-Jan-15 22:30N 34°58' E 139°31'1111.0
2015-Jan-15 21:33N 35°05' E 139°41'1211.6
2015-Jan-15 20:33N 35°15' E 139°46'10 8.7
2015-Jan-15 19:24N 35°26' E 139°47'6 2.0
2015-Jan-15 16:32N 35°22' E 139°53'0 0.0
2015-Jan-15 14:10N 35°22' E 139°53'0 0.0
2015-Jan-15 13:28N 35°22' E 139°53'0 0.0
2015-Jan-15 12:12N 35°22' E 139°53'0 0.0
2015-Jan-15 11:26N 35°22' E 139°53'0 0.0
2015-Jan-15 10:30N 35°22' E 139°53'0 0.0
2015-Jan-15 09:31N 35°22' E 139°53'0 0.0
2015-Jan-15 08:31N 35°22' E 139°53'0 0.0
2015-Jan-15 01:30N 35°22' E 139°53'0 0.0
2015-Jan-15 00:33N 35°22' E 139°53'2 0.4
2015-Jan-14 18:17N 35°23' E 139°50'0 0.0
2015-Jan-14 17:33N 35°23' E 139°50'4 3.9
2015-Jan-14 16:33N 35°22' E 139°46'10 9.6
2015-Jan-14 15:33N 35°13' E 139°47'1010.5
2015-Jan-14 14:33N 35°04' E 139°39'  
2015-Jan-11 12:27N 34°45' E 139°09'25 8.7
2015-Jan-11 09:32N 34°52' E 139°39'6 5.5
2015-Jan-11 08:30N 34°52' E 139°46'11 5.0
2015-Jan-11 06:22N 34°54' E 139°59'  

Dump ship's entire track history